createdAt,value
2018-08-24T00:00:02.184Z,6.33
2018-08-24T00:00:35.146Z,6.42
2018-08-24T00:01:08.070Z,7.05
2018-08-24T00:01:41.043Z,6.22
2018-08-24T00:02:14.011Z,6.60
2018-08-24T00:02:46.935Z,7.12
2018-08-24T00:03:19.878Z,6.42
2018-08-24T00:03:52.813Z,7.10
2018-08-24T00:04:25.910Z,7.10
2018-08-24T00:04:58.887Z,7.25
2018-08-24T00:05:31.902Z,7.03
2018-08-24T00:06:04.980Z,7.00
2018-08-24T00:06:39.510Z,7.72
2018-08-24T00:07:12.576Z,7.50
2018-08-24T00:07:45.601Z,7.00
2018-08-24T00:08:18.531Z,7.15
2018-08-24T00:08:52.021Z,6.87
2018-08-24T00:09:26.046Z,6.15
2018-08-24T00:09:59.172Z,7.72
2018-08-24T00:10:32.122Z,6.95
2018-08-24T00:11:05.079Z,6.90
2018-08-24T00:11:38.530Z,7.15
2018-08-24T00:12:11.466Z,7.92
2018-08-24T00:12:44.394Z,7.97
2018-08-24T00:13:17.378Z,7.58
2018-08-24T00:13:50.371Z,7.20
2018-08-24T00:14:23.322Z,6.97
2018-08-24T00:14:56.287Z,6.40
2018-08-24T00:15:29.315Z,7.35
2018-08-24T00:16:02.283Z,6.83
2018-08-24T00:16:37.139Z,6.95
2018-08-24T00:17:15.658Z,7.47
2018-08-24T00:17:48.569Z,6.92
2018-08-24T00:18:21.497Z,6.10
2018-08-24T00:18:54.463Z,7.17
2018-08-24T00:19:27.442Z,7.30
2018-08-24T00:20:01.147Z,7.03
2018-08-24T00:20:34.106Z,6.87
2018-08-24T00:21:07.093Z,6.22
2018-08-24T00:21:40.246Z,7.35
2018-08-24T00:22:13.176Z,6.78
2018-08-24T00:22:46.125Z,6.80
2018-08-24T00:23:19.074Z,6.85
2018-08-24T00:23:52.037Z,6.25
2018-08-24T00:24:24.954Z,6.42
2018-08-24T00:24:57.924Z,7.20
2018-08-24T00:25:31.140Z,6.97
2018-08-24T00:26:04.054Z,6.83
2018-08-24T00:26:37.043Z,7.20
2018-08-24T00:27:09.958Z,6.67
2018-08-24T00:27:42.889Z,6.92
2018-08-24T00:28:15.847Z,6.25
2018-08-24T00:28:48.835Z,7.55
2018-08-24T00:29:21.805Z,7.33
2018-08-24T00:29:54.880Z,7.35
2018-08-24T00:30:27.835Z,7.03
2018-08-24T00:31:00.934Z,6.72
2018-08-24T00:31:34.550Z,6.53
2018-08-24T00:32:07.603Z,6.50
2018-08-24T00:32:40.566Z,7.25
2018-08-24T00:33:13.647Z,6.87
2018-08-24T00:33:52.343Z,6.65
2018-08-24T00:34:25.294Z,7.25
2018-08-24T00:34:58.327Z,6.90
2018-08-24T00:35:31.266Z,6.35
2018-08-24T00:36:04.178Z,6.42
2018-08-24T00:36:37.120Z,6.83
2018-08-24T00:37:10.062Z,6.10
2018-08-24T00:37:43.252Z,7.40
2018-08-24T00:38:16.192Z,6.40
2018-08-24T00:38:49.112Z,7.20
2018-08-24T00:39:22.058Z,6.28
2018-08-24T00:39:55.072Z,6.67
2018-08-24T00:40:28.025Z,6.95
2018-08-24T00:41:01.014Z,6.78
2018-08-24T00:41:34.242Z,6.60
2018-08-24T00:42:07.190Z,7.37
2018-08-24T00:42:40.139Z,6.75
2018-08-24T00:43:13.050Z,6.50
2018-08-24T00:43:46.008Z,7.65
2018-08-24T00:44:19.061Z,7.20
2018-08-24T00:44:51.985Z,6.42
2018-08-24T00:45:25.175Z,6.42
2018-08-24T00:45:58.090Z,6.50
2018-08-24T00:46:31.192Z,6.65
2018-08-24T00:47:04.105Z,6.67
2018-08-24T00:47:37.120Z,6.40
2018-08-24T00:48:10.041Z,6.80
2018-08-24T00:48:43.202Z,6.65
2018-08-24T00:49:16.120Z,7.33
2018-08-24T00:49:49.065Z,6.90
2018-08-24T00:50:22.021Z,7.33
2018-08-24T00:50:55.154Z,7.15
2018-08-24T00:51:28.098Z,6.47
2018-08-24T00:52:01.113Z,6.90
2018-08-24T00:52:34.046Z,7.55
2018-08-24T00:53:07.016Z,6.80
2018-08-24T00:53:40.401Z,7.40
2018-08-24T00:54:13.472Z,6.90
2018-08-24T00:54:46.915Z,7.35
2018-08-24T00:55:19.818Z,6.62
2018-08-24T00:55:52.729Z,6.60
2018-08-24T00:56:25.660Z,6.70
2018-08-24T00:56:58.790Z,7.67
2018-08-24T00:57:31.777Z,7.37
2018-08-24T00:58:04.700Z,6.85
2018-08-24T00:58:38.633Z,6.70
2018-08-24T00:59:11.565Z,7.20
2018-08-24T00:59:44.500Z,7.03
2018-08-24T01:00:17.429Z,6.97
2018-08-24T01:00:54.701Z,7.50
2018-08-24T01:01:27.651Z,7.03
2018-08-24T01:02:00.682Z,6.42
2018-08-24T01:02:33.794Z,7.05
2018-08-24T01:03:06.744Z,7.55
2018-08-24T01:03:39.990Z,6.92
2018-08-24T01:04:12.993Z,7.17
2018-08-24T01:04:46.205Z,6.83
2018-08-24T01:05:19.170Z,6.78
2018-08-24T01:05:52.107Z,7.03
2018-08-24T01:06:25.587Z,6.58
2018-08-24T01:06:58.530Z,7.30
2018-08-24T01:07:35.876Z,7.42
2018-08-24T01:08:09.173Z,6.97
2018-08-24T01:08:44.333Z,7.95
2018-08-24T01:09:17.419Z,8.18
2018-08-24T01:09:50.437Z,7.03
2018-08-24T01:10:25.385Z,7.00
2018-08-24T01:10:58.950Z,6.83
2018-08-24T01:11:37.530Z,7.30
2018-08-24T01:12:14.538Z,6.35
2018-08-24T01:12:47.494Z,6.40
2018-08-24T01:13:20.424Z,7.62
2018-08-24T01:13:53.517Z,6.72
2018-08-24T01:14:26.414Z,7.28
2018-08-24T01:14:59.457Z,6.97
2018-08-24T01:15:38.055Z,7.20
2018-08-24T01:16:15.302Z,6.60
2018-08-24T01:16:53.776Z,7.42
2018-08-24T01:17:32.331Z,7.55
2018-08-24T01:18:10.849Z,7.55
2018-08-24T01:18:47.780Z,7.30
2018-08-24T01:19:20.734Z,7.20
2018-08-24T01:19:53.688Z,7.65
2018-08-24T01:20:30.861Z,7.92
2018-08-24T01:21:03.907Z,7.25
2018-08-24T01:21:36.836Z,7.12
2018-08-24T01:22:09.785Z,7.80
2018-08-24T01:22:42.724Z,7.40
2018-08-24T01:23:15.728Z,7.80
2018-08-24T01:23:48.716Z,7.62
2018-08-24T01:24:26.042Z,7.25
2018-08-24T01:24:58.960Z,7.78
2018-08-24T01:25:31.915Z,7.15
2018-08-24T01:26:07.259Z,7.65
2018-08-24T01:26:40.190Z,7.45
2018-08-24T01:27:13.082Z,7.47
2018-08-24T01:27:46.017Z,7.33
2018-08-24T01:28:19.602Z,8.30
2018-08-24T01:28:53.007Z,7.33
2018-08-24T01:29:25.942Z,8.30
2018-08-24T01:29:58.876Z,7.45
2018-08-24T01:30:31.821Z,7.22
2018-08-24T01:31:06.917Z,7.55
2018-08-24T01:31:39.839Z,8.00
2018-08-24T01:32:14.296Z,7.70
2018-08-24T01:32:47.197Z,8.08
2018-08-24T01:33:20.116Z,6.85
2018-08-24T01:33:53.167Z,7.78
2018-08-24T01:34:26.149Z,7.15
2018-08-24T01:34:59.195Z,7.50
2018-08-24T01:35:32.209Z,8.05
2018-08-24T01:36:05.209Z,7.08
2018-08-24T01:36:38.159Z,7.70
2018-08-24T01:37:11.130Z,7.00
2018-08-24T01:37:44.086Z,8.50
2018-08-24T01:38:17.026Z,8.13
2018-08-24T01:38:49.946Z,7.78
2018-08-24T01:39:22.926Z,7.97
2018-08-24T01:39:55.852Z,8.05
2018-08-24T01:40:28.797Z,7.67
2018-08-24T01:41:01.712Z,7.15
2018-08-24T01:41:34.715Z,7.40
2018-08-24T01:42:07.895Z,7.40
2018-08-24T01:42:40.866Z,7.40
2018-08-24T01:43:13.791Z,7.70
2018-08-24T01:43:46.700Z,7.70
2018-08-24T01:44:27.178Z,6.97
2018-08-24T01:45:00.120Z,7.35
2018-08-24T01:45:33.049Z,7.87
2018-08-24T01:46:11.473Z,7.15
2018-08-24T01:46:44.422Z,7.97
2018-08-24T01:47:17.326Z,6.75
2018-08-24T01:47:50.271Z,7.45
2018-08-24T01:48:23.201Z,6.65
2018-08-24T01:48:56.421Z,6.92
2018-08-24T01:49:29.341Z,8.03
2018-08-24T01:50:02.282Z,7.80
2018-08-24T01:50:35.216Z,7.78
2018-08-24T01:51:08.128Z,7.35
2018-08-24T01:51:41.081Z,7.58
2018-08-24T01:52:14.022Z,7.42
2018-08-24T01:52:46.946Z,7.72
2018-08-24T01:53:19.846Z,7.00
2018-08-24T01:53:52.936Z,7.53
2018-08-24T01:54:25.838Z,7.42
2018-08-24T01:54:58.838Z,8.08
2018-08-24T01:55:31.811Z,8.43
2018-08-24T01:56:04.845Z,7.70
2018-08-24T01:56:37.906Z,7.53
2018-08-24T01:57:10.865Z,7.97
2018-08-24T01:57:43.816Z,8.60
2018-08-24T01:58:16.775Z,7.67
2018-08-24T01:58:49.701Z,8.90
2018-08-24T01:59:22.626Z,10.50
2018-08-24T01:59:55.578Z,12.73
2018-08-24T02:00:28.526Z,10.43
2018-08-24T02:01:01.475Z,9.53
2018-08-24T02:01:34.411Z,9.43
2018-08-24T02:02:07.544Z,11.57
2018-08-24T02:02:40.667Z,15.70
2018-08-24T02:03:13.610Z,16.23
2018-08-24T02:03:46.675Z,17.00
2018-08-24T02:04:19.587Z,19.65
2018-08-24T02:04:52.524Z,18.80
2018-08-24T02:05:25.490Z,16.37
2018-08-24T02:06:04.009Z,14.90
2018-08-24T02:06:37.128Z,13.65
2018-08-24T02:07:10.068Z,15.45
2018-08-24T02:07:43.169Z,15.18
2018-08-24T02:08:16.106Z,16.60
2018-08-24T02:08:49.052Z,17.00
2018-08-24T02:09:22.983Z,18.00
2018-08-24T02:09:55.899Z,19.17
2018-08-24T02:10:29.368Z,20.30
2018-08-24T02:11:02.310Z,19.40
2018-08-24T02:11:35.278Z,19.77
2018-08-24T02:12:12.536Z,21.00
2018-08-24T02:12:50.882Z,22.50
2018-08-24T02:13:29.272Z,22.60
2018-08-24T02:15:08.087Z,21.93
2018-08-24T02:15:47.207Z,20.43
2018-08-24T02:16:20.205Z,17.30
2018-08-24T02:16:53.524Z,19.07
2018-08-24T02:17:31.926Z,17.50
2018-08-24T02:19:13.054Z,14.90
2018-08-24T02:19:51.458Z,12.73
2018-08-24T02:20:29.991Z,13.20
2018-08-24T02:21:08.594Z,12.18
2018-08-24T02:21:47.075Z,12.37
2018-08-24T02:22:20.046Z,12.63
2018-08-24T02:22:55.037Z,11.20
2018-08-24T02:23:28.012Z,10.95
2018-08-24T02:24:00.955Z,10.60
2018-08-24T02:24:33.870Z,10.75
2018-08-24T02:25:06.798Z,9.95
2018-08-24T02:25:39.809Z,10.53
2018-08-24T02:26:12.747Z,11.38
2018-08-24T02:26:46.365Z,10.75
2018-08-24T02:27:19.288Z,11.38
2018-08-24T02:27:52.230Z,13.13
2018-08-24T02:28:25.208Z,11.83
2018-08-24T02:28:58.164Z,12.28
2018-08-24T02:29:31.105Z,13.25
2018-08-24T02:30:04.102Z,14.05
2018-08-24T02:30:37.053Z,13.40
2018-08-24T02:31:10.027Z,14.73
2018-08-24T02:31:49.487Z,17.60
2018-08-24T02:32:22.463Z,16.30
2018-08-24T02:32:55.433Z,16.10
2018-08-24T02:33:30.041Z,17.37
2018-08-24T02:34:03.276Z,18.92
2018-08-24T02:34:36.185Z,24.12
2018-08-24T02:35:09.134Z,25.10
2018-08-24T02:35:42.119Z,22.55
2018-08-24T02:36:15.063Z,24.12
2018-08-24T02:36:48.072Z,23.20
2018-08-24T02:37:21.018Z,28.83
2018-08-24T02:37:53.961Z,24.87
2018-08-24T02:38:26.937Z,24.52
2018-08-24T02:38:59.887Z,24.35
2018-08-24T02:39:32.858Z,33.58
2018-08-24T02:40:06.284Z,32.55
2018-08-24T02:40:39.211Z,32.88
2018-08-24T02:41:12.260Z,39.10
2018-08-24T02:41:45.315Z,40.85
2018-08-24T02:42:18.294Z,43.00
2018-08-24T02:42:51.233Z,40.17
2018-08-24T02:43:24.149Z,40.70
2018-08-24T02:43:57.841Z,41.25
2018-08-24T02:44:30.789Z,42.05
2018-08-24T02:45:03.783Z,44.20
2018-08-24T02:45:36.747Z,42.58
2018-08-24T02:46:09.658Z,43.33
2018-08-24T02:46:43.544Z,44.75
2018-08-24T02:47:16.491Z,45.73
2018-08-24T02:47:49.430Z,47.25
2018-08-24T02:48:22.466Z,46.85
2018-08-24T02:48:55.386Z,46.90
2018-08-24T02:49:28.354Z,46.13
2018-08-24T02:50:01.256Z,44.90
2018-08-24T02:50:34.184Z,45.40
2018-08-24T02:51:07.105Z,46.50
2018-08-24T02:51:40.023Z,46.68
2018-08-24T02:52:13.129Z,44.45
2018-08-24T02:52:46.146Z,50.15
2018-08-24T02:53:19.132Z,50.50
2018-08-24T02:53:52.073Z,48.17
2018-08-24T02:54:25.042Z,49.33
2018-08-24T02:54:58.021Z,47.38
2018-08-24T02:55:30.985Z,50.28
2018-08-24T02:56:03.932Z,48.42
2018-08-24T02:56:36.855Z,47.62
2018-08-24T02:57:09.842Z,48.92
2018-08-24T02:57:42.765Z,50.28
2018-08-24T02:58:15.766Z,48.25
2018-08-24T02:58:48.745Z,47.03
2018-08-24T02:59:21.695Z,50.95
2018-08-24T02:59:54.621Z,51.75
2018-08-24T03:00:27.577Z,52.13
2018-08-24T03:01:00.514Z,53.42
2018-08-24T03:01:33.477Z,52.23
2018-08-24T03:02:06.434Z,49.63
2018-08-24T03:02:39.359Z,51.23
2018-08-24T03:03:12.299Z,53.68
2018-08-24T03:03:45.580Z,51.83
2018-08-24T03:04:18.505Z,53.25
2018-08-24T03:04:51.452Z,53.17
2018-08-24T03:05:24.493Z,54.65
2018-08-24T03:05:57.397Z,52.55
2018-08-24T03:06:30.395Z,50.65
2018-08-24T03:07:03.402Z,53.78
2018-08-24T03:07:36.336Z,54.90
2018-08-24T03:08:09.363Z,52.35
2018-08-24T03:08:42.630Z,55.12
2018-08-24T03:09:15.605Z,51.00
2018-08-24T03:09:48.698Z,50.52
2018-08-24T03:10:21.654Z,51.35
2018-08-24T03:10:54.605Z,52.58
2018-08-24T03:11:27.694Z,52.98
2018-08-24T03:12:07.076Z,51.55
2018-08-24T03:12:40.151Z,52.45
2018-08-24T03:13:13.113Z,51.75
2018-08-24T03:13:46.059Z,52.17
2018-08-24T03:14:19.079Z,49.93
2018-08-24T03:14:52.014Z,47.70
2018-08-24T03:15:24.937Z,47.25
2018-08-24T03:15:57.952Z,45.70
2018-08-24T03:16:30.973Z,45.75
2018-08-24T03:17:10.294Z,47.23
2018-08-24T03:17:48.886Z,47.55
2018-08-24T03:18:21.812Z,45.90
2018-08-24T03:18:56.890Z,45.58
2018-08-24T03:19:29.826Z,44.35
2018-08-24T03:20:02.758Z,45.05
2018-08-24T03:20:35.696Z,45.08
2018-08-24T03:21:08.638Z,45.70
2018-08-24T03:21:41.610Z,43.33
2018-08-24T03:22:14.527Z,43.40
2018-08-24T03:22:47.456Z,45.15
2018-08-24T03:23:20.402Z,44.88
2018-08-24T03:23:53.347Z,44.27
2018-08-24T03:24:26.404Z,43.45
2018-08-24T03:24:59.351Z,41.53
2018-08-24T03:25:32.324Z,43.52
2018-08-24T03:26:05.233Z,41.08
2018-08-24T03:26:38.159Z,41.00
2018-08-24T03:27:11.143Z,40.85
2018-08-24T03:27:44.067Z,43.10
2018-08-24T03:28:17.006Z,41.37
2018-08-24T03:28:49.954Z,39.80
2018-08-24T03:29:23.294Z,39.20
2018-08-24T03:29:56.228Z,37.93
2018-08-24T03:30:29.178Z,38.08
2018-08-24T03:31:02.374Z,36.98
2018-08-24T03:31:35.334Z,35.20
2018-08-24T03:32:08.470Z,36.00
2018-08-24T03:32:41.388Z,34.95
2018-08-24T03:33:14.616Z,34.20
2018-08-24T03:33:47.579Z,35.00
2018-08-24T03:34:20.633Z,35.45
2018-08-24T03:34:53.550Z,34.50
2018-08-24T03:35:26.515Z,32.20
2018-08-24T03:35:59.562Z,34.73
2018-08-24T03:36:32.497Z,33.28
2018-08-24T03:37:05.661Z,32.20
2018-08-24T03:37:38.629Z,34.08
2018-08-24T03:38:11.699Z,34.13
2018-08-24T03:38:44.634Z,32.75
2018-08-24T03:39:17.655Z,31.20
2018-08-24T03:39:50.603Z,31.12
2018-08-24T03:40:23.655Z,29.02
2018-08-24T03:40:56.591Z,28.92
2018-08-24T03:41:29.524Z,26.80
2018-08-24T03:42:02.593Z,28.30
2018-08-24T03:42:35.544Z,27.98
2018-08-24T03:43:08.529Z,26.82
2018-08-24T03:43:41.493Z,26.07
2018-08-24T03:44:14.454Z,26.90
2018-08-24T03:44:47.399Z,27.42
2018-08-24T03:45:20.380Z,25.92
2018-08-24T03:45:53.380Z,25.92
2018-08-24T03:46:26.428Z,25.20
2018-08-24T03:46:59.403Z,25.32
2018-08-24T03:47:32.373Z,24.63
2018-08-24T03:48:05.340Z,24.67
2018-08-24T03:48:38.255Z,24.72
2018-08-24T03:49:11.694Z,24.98
2018-08-24T03:49:44.701Z,23.70
2018-08-24T03:50:17.653Z,23.07
2018-08-24T03:50:50.800Z,25.60
2018-08-24T03:51:23.788Z,23.30
2018-08-24T03:51:56.725Z,22.52
2018-08-24T03:52:29.637Z,22.37
2018-08-24T03:53:02.557Z,22.00
2018-08-24T03:53:35.772Z,21.60
2018-08-24T03:54:14.656Z,20.92
2018-08-24T03:54:47.575Z,21.93
2018-08-24T03:55:20.525Z,21.93
2018-08-24T03:55:53.503Z,19.85
2018-08-24T03:56:26.429Z,20.88
2018-08-24T03:56:59.652Z,21.85
2018-08-24T03:57:32.601Z,20.05
2018-08-24T03:58:06.790Z,19.60
2018-08-24T03:58:39.763Z,19.67
2018-08-24T03:59:12.746Z,20.72
2018-08-24T03:59:45.746Z,18.90
2018-08-24T04:00:18.677Z,19.17
2018-08-24T04:00:56.013Z,17.73
2018-08-24T04:01:28.958Z,18.02
2018-08-24T04:02:01.956Z,17.90
2018-08-24T04:02:34.941Z,16.77
2018-08-24T04:03:07.876Z,17.37
2018-08-24T04:03:40.831Z,18.67
2018-08-24T04:04:13.774Z,17.48
2018-08-24T04:04:46.736Z,17.45
2018-08-24T04:05:19.698Z,16.70
2018-08-24T04:05:52.638Z,16.93
2018-08-24T04:06:25.599Z,15.00
2018-08-24T04:06:58.540Z,16.55
2018-08-24T04:07:31.536Z,16.27
2018-08-24T04:08:04.465Z,15.70
2018-08-24T04:08:37.410Z,15.78
2018-08-24T04:09:10.537Z,14.35
2018-08-24T04:09:43.637Z,15.88
2018-08-24T04:10:16.554Z,16.17
2018-08-24T04:10:49.484Z,14.58
2018-08-24T04:11:22.536Z,14.28
2018-08-24T04:11:55.571Z,15.10
2018-08-24T04:12:28.558Z,16.02
2018-08-24T04:13:02.156Z,14.95
2018-08-24T04:13:35.144Z,14.33
2018-08-24T04:14:08.111Z,13.80
2018-08-24T04:14:41.083Z,13.95
2018-08-24T04:15:14.030Z,13.58
2018-08-24T04:15:47.145Z,14.25
2018-08-24T04:16:20.080Z,14.15
2018-08-24T04:16:58.638Z,14.20
2018-08-24T04:17:37.111Z,15.00
2018-08-24T04:18:10.338Z,14.98
2018-08-24T04:18:43.365Z,14.18
2018-08-24T04:19:21.998Z,15.30
2018-08-24T04:19:54.965Z,13.62
2018-08-24T04:20:27.876Z,15.45
2018-08-24T04:21:01.065Z,14.50
2018-08-24T04:21:34.010Z,14.98
2018-08-24T04:22:06.982Z,14.18
2018-08-24T04:22:40.145Z,14.80
2018-08-24T04:23:13.098Z,15.08
2018-08-24T04:23:46.027Z,14.75
2018-08-24T04:24:20.049Z,15.30
2018-08-24T04:24:53.015Z,14.23
2018-08-24T04:25:25.991Z,15.40
2018-08-24T04:25:58.989Z,14.87
2018-08-24T04:26:31.977Z,14.53
2018-08-24T04:27:05.164Z,13.32
2018-08-24T04:27:38.639Z,14.07
2018-08-24T04:28:12.601Z,15.03
2018-08-24T04:28:45.552Z,15.43
2018-08-24T04:29:18.466Z,15.35
2018-08-24T04:29:51.576Z,14.00
2018-08-24T04:30:24.617Z,14.63
2018-08-24T04:30:57.555Z,15.00
2018-08-24T04:31:30.525Z,15.80
2018-08-24T04:32:03.490Z,15.72
2018-08-24T04:32:36.433Z,16.35
2018-08-24T04:33:09.382Z,16.40
2018-08-24T04:33:42.307Z,18.73
2018-08-24T04:34:15.277Z,17.00
2018-08-24T04:34:48.356Z,15.88
2018-08-24T04:35:21.371Z,14.95
2018-08-24T04:35:54.330Z,17.00
2018-08-24T04:36:28.050Z,15.93
2018-08-24T04:37:00.988Z,17.20
2018-08-24T04:37:34.656Z,16.60
2018-08-24T04:38:07.907Z,15.93
2018-08-24T04:38:40.926Z,15.63
2018-08-24T04:39:14.165Z,16.30
2018-08-24T04:39:47.164Z,15.45
2018-08-24T04:40:22.986Z,16.00
2018-08-24T04:40:56.836Z,16.30
2018-08-24T04:41:30.651Z,16.42
2018-08-24T04:42:04.228Z,15.93
2018-08-24T04:42:37.368Z,17.23
2018-08-24T04:43:10.549Z,16.55
2018-08-24T04:43:43.739Z,17.05
2018-08-24T04:44:17.143Z,16.42
2018-08-24T04:44:50.240Z,16.57
2018-08-24T04:45:23.223Z,16.65
2018-08-24T04:45:56.217Z,17.02
2018-08-24T04:46:29.214Z,16.20
2018-08-24T04:47:02.221Z,16.35
2018-08-24T04:47:35.190Z,16.17
2018-08-24T04:48:08.211Z,17.52
2018-08-24T04:48:41.166Z,16.30
2018-08-24T04:49:14.419Z,17.92
2018-08-24T04:49:47.375Z,17.00
2018-08-24T04:50:20.493Z,17.62
2018-08-24T04:50:53.524Z,17.10
2018-08-24T04:51:27.191Z,17.65
2018-08-24T04:52:01.340Z,18.87
2018-08-24T04:52:34.482Z,17.07
2018-08-24T04:53:08.079Z,17.60
2018-08-24T04:54:20.502Z,17.12
2018-08-24T04:54:53.434Z,19.70
2018-08-24T04:55:26.383Z,17.42
2018-08-24T04:55:59.327Z,18.20
2018-08-24T04:56:32.527Z,17.25
2018-08-24T04:57:05.556Z,17.70
2018-08-24T04:57:38.968Z,16.67
2018-08-24T04:58:12.136Z,18.25
2018-08-24T04:58:45.101Z,18.07
2018-08-24T04:59:18.180Z,19.90
2018-08-24T04:59:51.127Z,19.32
2018-08-24T05:00:24.193Z,18.30
2018-08-24T05:00:57.314Z,19.85
2018-08-24T05:01:30.373Z,18.45
2018-08-24T05:02:03.943Z,18.23
2018-08-24T05:02:37.120Z,18.45
2018-08-24T05:03:10.070Z,18.37
2018-08-24T05:03:43.018Z,18.17
2018-08-24T05:04:15.969Z,18.65
2018-08-24T05:04:48.990Z,17.67
2018-08-24T05:05:21.909Z,19.20
2018-08-24T05:05:54.853Z,21.35
2018-08-24T05:06:28.674Z,17.37
2018-08-24T05:07:01.653Z,20.97
2018-08-24T05:07:35.231Z,21.25
2018-08-24T05:08:08.175Z,19.40
2018-08-24T05:08:41.166Z,20.08
2018-08-24T05:09:14.184Z,21.27
2018-08-24T05:09:47.241Z,21.12
2018-08-24T05:10:20.191Z,19.67
2018-08-24T05:10:53.161Z,19.05
2018-08-24T05:11:26.201Z,20.48
2018-08-24T05:11:59.340Z,19.48
2018-08-24T05:12:32.459Z,19.45
2018-08-24T05:13:05.508Z,19.67
2018-08-24T05:13:38.658Z,19.80
2018-08-24T05:14:11.644Z,20.00
2018-08-24T05:14:44.608Z,18.52
2018-08-24T05:15:17.638Z,21.12
2018-08-24T05:15:50.601Z,21.93
2018-08-24T05:16:23.582Z,20.72
2018-08-24T05:16:56.758Z,20.88
2018-08-24T05:17:29.811Z,22.80
2018-08-24T05:18:02.778Z,19.92
2018-08-24T05:18:35.828Z,22.42
2018-08-24T05:19:08.902Z,21.85
2018-08-24T05:19:41.861Z,20.20
2018-08-24T05:20:14.957Z,20.77
2018-08-24T05:20:47.976Z,19.10
2018-08-24T05:21:21.511Z,22.15
2018-08-24T05:21:54.522Z,21.20
2018-08-24T05:22:28.325Z,21.95
2018-08-24T05:23:01.690Z,21.97
2018-08-24T05:23:34.787Z,19.70
2018-08-24T05:24:07.974Z,20.43
2018-08-24T05:24:41.257Z,20.72
2018-08-24T05:25:14.234Z,21.85
2018-08-24T05:25:47.220Z,21.65
2018-08-24T05:26:20.149Z,21.02
2018-08-24T05:26:53.279Z,21.37
2018-08-24T05:27:26.321Z,22.95
2018-08-24T05:27:59.422Z,21.93
2018-08-24T05:28:32.496Z,23.18
2018-08-24T05:29:05.442Z,21.30
2018-08-24T05:29:38.498Z,22.60
2018-08-24T05:30:11.477Z,21.80
2018-08-24T05:30:44.522Z,21.87
2018-08-24T05:31:17.639Z,21.42
2018-08-24T05:31:50.639Z,21.30
2018-08-24T05:32:23.558Z,21.60
2018-08-24T05:32:56.515Z,19.90
2018-08-24T05:33:29.628Z,19.98
2018-08-24T05:34:02.618Z,20.97
2018-08-24T05:34:35.677Z,21.62
2018-08-24T05:35:08.780Z,22.20
2018-08-24T05:35:42.134Z,22.00
2018-08-24T05:36:15.254Z,20.82
2018-08-24T05:36:48.301Z,21.70
2018-08-24T05:37:21.341Z,22.50
2018-08-24T05:37:54.338Z,21.55
2018-08-24T05:38:27.651Z,23.20
2018-08-24T05:39:00.580Z,22.42
2018-08-24T05:39:33.581Z,22.40
2018-08-24T05:40:06.580Z,23.35
2018-08-24T05:40:39.935Z,20.90
2018-08-24T05:41:13.033Z,20.48
2018-08-24T05:41:46.124Z,21.60
2018-08-24T05:42:19.159Z,24.98
2018-08-24T05:42:53.055Z,25.00
2018-08-24T05:43:26.103Z,23.00
2018-08-24T05:43:59.341Z,19.50
2018-08-24T05:44:32.389Z,20.85
2018-08-24T05:45:05.772Z,22.35
2018-08-24T05:45:38.769Z,22.27
2018-08-24T05:46:11.713Z,21.02
2018-08-24T05:46:45.054Z,22.82
2018-08-24T05:47:18.425Z,21.52
2018-08-24T05:47:52.673Z,22.35
2018-08-24T05:48:26.413Z,21.12
2018-08-24T05:49:00.669Z,21.95
2018-08-24T05:49:34.896Z,20.55
2018-08-24T05:50:08.540Z,21.12
2018-08-24T05:50:41.631Z,21.12
2018-08-24T05:51:14.678Z,20.65
2018-08-24T05:51:48.612Z,21.35
2018-08-24T05:52:21.774Z,22.20
2018-08-24T05:52:55.403Z,21.75
2018-08-24T05:53:28.398Z,21.23
2018-08-24T05:54:01.386Z,21.48
2018-08-24T05:54:34.519Z,21.55
2018-08-24T05:55:07.490Z,21.45
2018-08-24T05:55:40.853Z,19.42
2018-08-24T05:56:13.859Z,21.90
2018-08-24T05:56:46.973Z,20.27
2018-08-24T05:57:20.175Z,21.25
2018-08-24T05:57:53.096Z,19.65
2018-08-24T05:58:26.601Z,21.40
2018-08-24T05:58:59.986Z,21.62
2018-08-24T05:59:32.972Z,20.48
2018-08-24T06:00:05.936Z,20.10
2018-08-24T06:00:40.505Z,20.40
2018-08-24T06:01:13.539Z,22.00
2018-08-24T06:01:46.552Z,20.85
2018-08-24T06:02:19.562Z,20.75
2018-08-24T06:02:52.612Z,21.02
2018-08-24T06:03:25.813Z,21.65
2018-08-24T06:03:59.130Z,21.52
2018-08-24T06:04:32.121Z,22.27
2018-08-24T06:05:05.153Z,23.07
2018-08-24T06:05:42.549Z,20.77
2018-08-24T06:06:15.700Z,21.12
2018-08-24T06:06:48.785Z,19.62
2018-08-24T06:07:22.813Z,22.35
2018-08-24T06:07:55.968Z,19.75
2018-08-24T06:08:29.578Z,20.92
2018-08-24T06:09:08.113Z,20.88
2018-08-24T06:09:41.218Z,21.02
2018-08-24T06:10:14.772Z,20.15
2018-08-24T06:10:47.996Z,19.30
2018-08-24T06:11:21.311Z,21.10
2018-08-24T06:11:54.648Z,21.70
2018-08-24T06:12:27.748Z,17.45
2018-08-24T06:13:02.667Z,18.70
2018-08-24T06:13:35.803Z,19.37
2018-08-24T06:14:09.664Z,20.00
2018-08-24T06:14:42.763Z,19.57
2018-08-24T06:15:15.989Z,21.30
2018-08-24T06:15:50.014Z,20.75
2018-08-24T06:16:23.063Z,20.60
2018-08-24T06:17:01.618Z,20.05
2018-08-24T06:17:40.103Z,21.05
2018-08-24T06:18:13.160Z,19.40
2018-08-24T06:18:46.176Z,21.87
2018-08-24T06:19:19.575Z,20.15
2018-08-24T06:19:52.694Z,21.02
2018-08-24T06:20:25.699Z,21.97
2018-08-24T06:20:58.769Z,20.45
2018-08-24T06:21:32.829Z,19.48
2018-08-24T06:22:05.869Z,20.52
2018-08-24T06:22:39.771Z,21.07
2018-08-24T06:23:13.017Z,20.08
2018-08-24T06:23:46.094Z,20.48
2018-08-24T06:24:19.381Z,20.12
2018-08-24T06:24:52.444Z,18.82
2018-08-24T06:25:26.313Z,19.15
2018-08-24T06:25:59.506Z,19.77
2018-08-24T06:26:32.573Z,19.48
2018-08-24T06:27:07.183Z,20.00
2018-08-24T06:27:40.441Z,20.02
2018-08-24T06:28:13.559Z,19.87
2018-08-24T06:28:46.676Z,20.00
2018-08-24T06:29:20.132Z,19.40
2018-08-24T06:29:53.226Z,20.10
2018-08-24T06:30:26.339Z,19.85
2018-08-24T06:30:59.532Z,19.60
2018-08-24T06:31:32.536Z,18.98
2018-08-24T06:32:06.590Z,20.75
2018-08-24T06:32:40.309Z,19.12
2018-08-24T06:33:13.400Z,19.62
2018-08-24T06:33:46.542Z,20.35
2018-08-24T06:34:19.617Z,18.17
2018-08-24T06:34:52.568Z,19.95
2018-08-24T06:35:25.541Z,19.00
2018-08-24T06:35:58.545Z,19.30
2018-08-24T06:36:31.483Z,19.45
2018-08-24T06:37:04.524Z,19.90
2018-08-24T06:37:38.481Z,19.82
2018-08-24T06:38:12.167Z,19.25
2018-08-24T06:38:45.325Z,18.77
2018-08-24T06:39:19.227Z,19.95
2018-08-24T06:39:55.500Z,17.10
2018-08-24T06:40:32.142Z,19.32
2018-08-24T06:41:06.425Z,19.25
2018-08-24T06:41:39.416Z,18.00
2018-08-24T06:42:12.449Z,19.48
2018-08-24T06:42:45.346Z,18.65
2018-08-24T06:43:18.412Z,19.65
2018-08-24T06:43:51.381Z,19.85
2018-08-24T06:44:24.352Z,19.48
2018-08-24T06:44:57.389Z,19.10
2018-08-24T06:45:30.412Z,18.57
2018-08-24T06:46:03.538Z,19.80
2018-08-24T06:46:36.949Z,18.07
2018-08-24T06:47:10.087Z,19.00
2018-08-24T06:47:43.351Z,18.62
2018-08-24T06:48:16.936Z,17.50
2018-08-24T06:48:49.945Z,18.05
2018-08-24T06:49:22.933Z,19.05
2018-08-24T06:49:56.089Z,18.23
2018-08-24T06:50:29.132Z,17.82
2018-08-24T06:51:02.266Z,18.80
2018-08-24T06:51:35.259Z,18.07
2018-08-24T06:52:08.246Z,19.17
2018-08-24T06:52:41.789Z,18.65
2018-08-24T06:53:17.570Z,18.73
2018-08-24T06:53:52.931Z,18.95
2018-08-24T06:54:29.603Z,19.57
2018-08-24T06:55:03.245Z,18.87
2018-08-24T06:55:36.800Z,19.37
2018-08-24T06:56:09.770Z,19.05
2018-08-24T06:56:42.660Z,19.20
2018-08-24T06:57:16.341Z,18.40
2018-08-24T06:57:49.468Z,18.45
2018-08-24T06:58:22.460Z,19.02
2018-08-24T06:58:55.463Z,19.98
2018-08-24T06:59:28.465Z,20.85
2018-08-24T07:00:01.845Z,18.75
2018-08-24T07:00:35.085Z,18.55
2018-08-24T07:01:08.169Z,18.35
2018-08-24T07:01:46.685Z,17.70
2018-08-24T07:02:24.770Z,18.17
2018-08-24T07:03:03.246Z,18.00
2018-08-24T07:03:41.833Z,16.65
2018-08-24T07:04:19.257Z,17.45
2018-08-24T07:04:56.845Z,17.82
2018-08-24T07:05:34.169Z,18.30
2018-08-24T07:06:07.195Z,19.77
2018-08-24T07:06:40.302Z,19.27
2018-08-24T07:07:13.307Z,18.00
2018-08-24T07:07:46.303Z,18.25
2018-08-24T07:08:19.276Z,16.95
2018-08-24T07:08:52.310Z,17.50
2018-08-24T07:09:25.247Z,17.05
2018-08-24T07:09:58.265Z,16.75
2018-08-24T07:10:31.268Z,17.35
2018-08-24T07:11:09.023Z,17.42
2018-08-24T07:11:46.472Z,15.78
2018-08-24T07:12:24.356Z,16.17
2018-08-24T07:13:02.586Z,16.02
2018-08-24T07:13:40.133Z,16.15
2018-08-24T07:14:17.828Z,17.35
2018-08-24T07:14:50.900Z,16.20
2018-08-24T07:15:24.471Z,17.60
2018-08-24T07:15:57.447Z,16.67
2018-08-24T07:16:30.405Z,17.05
2018-08-24T07:17:03.606Z,17.02
2018-08-24T07:17:41.969Z,17.20